Time,TemperatureF,DewpointF,PressureIn,WindDirection,WindDirectionDegrees,WindSpeedMPH,WindSpeedGustMPH,Humidity,HourlyPrecipIn,Conditions,Clouds,dailyrainin,SoftwareType,DateUTC
2013-04-07 00:05:00,51.1,45.9,29.62,WNW,286,6.8,12.0,77,0.00,NA,NA,0.03,meteo_script,2013-04-07 05:05:00,
2013-04-07 00:35:00,49.7,44.5,29.64,West,280,5.5,12.0,76,0.00,NA,NA,0.00,meteo_script,2013-04-07 05:35:00,
2013-04-07 01:05:00,48.6,43.0,29.65,West,279,5.6,11.0,75,0.00,NA,NA,0.00,meteo_script,2013-04-07 06:05:00,
2013-04-07 01:35:00,47.5,41.7,29.67,WNW,284,5.5,10.0,74,0.00,NA,NA,0.00,meteo_script,2013-04-07 06:35:00,
2013-04-07 02:05:00,45.9,39.8,29.69,NW,307,5.2,12.0,73,0.00,NA,NA,0.00,meteo_script,2013-04-07 07:05:00,
2013-04-07 02:35:00,44.2,38.2,29.71,NW,309,3.2,6.0,73,0.00,NA,NA,0.00,meteo_script,2013-04-07 07:35:00,
2013-04-07 03:05:00,43.1,36.9,29.73,WNW,298,4.9,10.0,71,0.00,NA,NA,0.00,meteo_script,2013-04-07 08:05:00,
2013-04-07 03:35:00,42.0,35.8,29.74,NW,314,4.0,9.0,72,0.00,NA,NA,0.00,meteo_script,2013-04-07 08:35:00,
2013-04-07 04:05:00,41.3,35.0,29.76,WNW,298,1.2,2.0,71,0.00,NA,NA,0.00,meteo_script,2013-04-07 09:05:00,
2013-04-07 04:35:00,41.0,35.1,29.77,WNW,282,5.6,8.0,73,0.00,NA,NA,0.00,meteo_script,2013-04-07 09:35:00,
2013-04-07 05:05:00,40.4,34.6,29.79,NW,324,1.5,4.0,73,0.00,NA,NA,0.00,meteo_script,2013-04-07 10:05:00,
2013-04-07 05:35:00,39.9,34.1,29.80,WNW,301,1.8,3.0,73,0.00,NA,NA,0.00,meteo_script,2013-04-07 10:35:00,
2013-04-07 06:05:00,39.3,33.1,29.81,NW,322,2.8,7.0,71,0.00,NA,NA,0.00,meteo_script,2013-04-07 11:05:00,
2013-04-07 06:35:00,38.4,32.4,29.83,NW,314,3.1,5.0,72,0.00,NA,NA,0.00,meteo_script,2013-04-07 11:35:00,
2013-04-07 07:05:00,37.6,32.3,29.84,WNW,294,0.7,3.0,74,0.00,NA,NA,0.00,meteo_script,2013-04-07 12:05:00,
2013-04-07 07:35:00,37.1,31.7,29.86,WNW,297,2.9,6.0,74,0.00,NA,NA,0.00,meteo_script,2013-04-07 12:35:00,
2013-04-07 08:05:00,37.2,31.5,29.87,NW,317,2.7,4.0,73,0.00,NA,NA,0.00,meteo_script,2013-04-07 13:05:00,
2013-04-07 08:35:00,38.0,31.8,29.89,NW,313,0.1,2.0,71,0.00,NA,NA,0.00,meteo_script,2013-04-07 13:35:00,
2013-04-07 09:05:00,38.5,32.0,29.91,NW,320,1.8,5.0,69,0.00,NA,NA,0.00,meteo_script,2013-04-07 14:05:00,
2013-04-07 09:35:00,39.4,32.3,29.92,West,278,1.5,3.0,67,0.00,NA,NA,0.00,meteo_script,2013-04-07 14:35:00,
2013-04-07 10:05:00,40.9,32.8,29.93,NNW,348,1.7,4.0,64,0.00,NA,NA,0.00,meteo_script,2013-04-07 15:05:00,
2013-04-07 10:35:00,41.9,33.4,29.95,North,352,2.8,7.0,63,0.00,NA,NA,0.00,meteo_script,2013-04-07 15:35:00,
2013-04-07 11:05:00,43.8,34.0,29.95,North,3,3.4,4.0,59,0.00,NA,NA,0.00,meteo_script,2013-04-07 16:05:00,
2013-04-07 11:35:00,45.1,34.8,29.97,NW,321,2.2,5.0,57,0.00,NA,NA,0.00,meteo_script,2013-04-07 16:35:00,
2013-04-07 12:05:00,47.3,35.6,29.97,NW,324,2.5,4.0,54,0.00,NA,NA,0.00,meteo_script,2013-04-07 17:05:00,
2013-04-07 12:35:00,49.3,36.9,29.98,WNW,287,2.6,5.0,52,0.00,NA,NA,0.00,meteo_script,2013-04-07 17:35:00,
2013-04-07 13:05:00,49.9,36.9,29.97,SW,235,0.3,2.0,51,0.00,NA,NA,0.00,meteo_script,2013-04-07 18:05:00,
2013-04-07 13:35:00,51.5,37.6,29.97,North,354,2.9,5.0,48,0.00,NA,NA,0.00,meteo_script,2013-04-07 18:35:00,
2013-04-07 14:05:00,53.0,38.4,29.97,West,271,2.3,8.0,47,0.00,NA,NA,0.00,meteo_script,2013-04-07 19:05:00,
2013-04-07 14:35:00,54.6,39.0,29.96,NW,304,1.6,3.0,45,0.00,NA,NA,0.00,meteo_script,2013-04-07 19:35:00,
2013-04-07 15:05:00,55.4,38.5,29.96,West,273,2.3,4.0,42,0.00,NA,NA,0.00,meteo_script,2013-04-07 20:05:00,
2013-04-07 15:35:00,56.8,39.1,29.95,SW,219,0.2,1.0,41,0.00,NA,NA,0.00,meteo_script,2013-04-07 20:35:00,
2013-04-07 16:05:00,58.1,39.3,29.95,SW,224,3.7,5.0,39,0.00,NA,NA,0.00,meteo_script,2013-04-07 21:05:00,
2013-04-07 16:35:00,59.3,39.9,29.94,SSE,150,0.0,1.0,38,0.00,NA,NA,0.00,meteo_script,2013-04-07 21:35:00,
2013-04-07 17:05:00,59.1,40.2,29.94,SSE,150,1.4,5.0,39,0.00,NA,NA,0.00,meteo_script,2013-04-07 22:05:00,
2013-04-07 17:35:00,57.6,40.2,29.94,North,0,0.0,0.0,41,0.00,NA,NA,0.00,meteo_script,2013-04-07 22:35:00,
2013-04-07 18:05:00,58.5,40.9,29.94,SSE,157,0.7,3.0,41,0.00,NA,NA,0.00,meteo_script,2013-04-07 23:05:00,
2013-04-07 18:35:00,56.8,40.0,29.93,ENE,68,2.3,7.0,43,0.00,NA,NA,0.00,meteo_script,2013-04-07 23:35:00,
2013-04-07 19:05:00,56.5,40.2,29.93,ENE,77,0.9,2.0,44,0.00,NA,NA,0.00,meteo_script,2013-04-08 00:05:00,
2013-04-07 19:35:00,55.1,39.7,29.93,East,98,0.0,1.0,46,0.00,NA,NA,0.00,meteo_script,2013-04-08 00:35:00,
2013-04-07 20:05:00,52.9,39.3,29.93,East,86,0.4,2.0,50,0.00,NA,NA,0.00,meteo_script,2013-04-08 01:05:00,
2013-04-07 20:35:00,50.8,39.1,29.94,ENE,77,0.2,1.0,54,0.00,NA,NA,0.00,meteo_script,2013-04-08 01:35:00,
2013-04-07 21:05:00,49.3,38.5,29.94,East,95,1.1,3.0,57,0.00,NA,NA,0.00,meteo_script,2013-04-08 02:05:00,
2013-04-07 21:35:00,48.3,38.2,29.94,East,97,0.5,3.0,59,0.00,NA,NA,0.00,meteo_script,2013-04-08 02:35:00,
2013-04-07 22:05:00,47.5,38.4,29.94,ESE,120,3.2,8.0,62,0.00,NA,NA,0.00,meteo_script,2013-04-08 03:05:00,
2013-04-07 22:36:00,45.3,37.1,29.94,ESE,106,1.2,3.0,64,0.00,NA,NA,0.00,meteo_script,2013-04-08 03:36:00,
2013-04-07 23:05:00,43.2,35.7,29.94,ESE,110,2.9,5.0,67,0.00,NA,NA,0.00,meteo_script,2013-04-08 04:05:00,
2013-04-07 23:35:00,41.4,34.5,29.93,East,89,2.4,4.0,69,0.00,NA,NA,0.00,meteo_script,2013-04-08 04:35:00,